sensor_id;sensor_type;location;lat;lon;timestamp;P1;durP1;ratioP1;P2;durP2;ratioP2
41653;SDS011;68687;52.030;7.110;2023-04-06T00:01:16;20.65;;;14.10;;
41653;SDS011;68687;52.030;7.110;2023-04-06T00:03:42;22.40;;;14.15;;
41653;SDS011;68687;52.030;7.110;2023-04-06T00:06:07;27.13;;;15.95;;
41653;SDS011;68687;52.030;7.110;2023-04-06T00:08:32;23.45;;;13.80;;
41653;SDS011;68687;52.030;7.110;2023-04-06T00:10:58;20.25;;;13.95;;
41653;SDS011;68687;52.030;7.110;2023-04-06T00:13:23;19.48;;;14.05;;
41653;SDS011;68687;52.030;7.110;2023-04-06T00:15:49;25.30;;;14.88;;
41653;SDS011;68687;52.030;7.110;2023-04-06T00:18:14;18.08;;;12.77;;
41653;SDS011;68687;52.030;7.110;2023-04-06T00:20:39;19.52;;;12.73;;
41653;SDS011;68687;52.030;7.110;2023-04-06T00:23:05;21.23;;;13.45;;
41653;SDS011;68687;52.030;7.110;2023-04-06T00:25:30;20.15;;;13.48;;
41653;SDS011;68687;52.030;7.110;2023-04-06T00:27:56;20.27;;;13.40;;
41653;SDS011;68687;52.030;7.110;2023-04-06T00:30:21;20.20;;;13.57;;
41653;SDS011;68687;52.030;7.110;2023-04-06T00:32:46;19.67;;;13.55;;
41653;SDS011;68687;52.030;7.110;2023-04-06T00:35:12;22.95;;;13.25;;
41653;SDS011;68687;52.030;7.110;2023-04-06T00:37:37;22.20;;;13.98;;
41653;SDS011;68687;52.030;7.110;2023-04-06T00:40:03;20.88;;;14.13;;
41653;SDS011;68687;52.030;7.110;2023-04-06T00:42:28;21.10;;;13.65;;
41653;SDS011;68687;52.030;7.110;2023-04-06T00:45:00;20.20;;;13.25;;
41653;SDS011;68687;52.030;7.110;2023-04-06T00:47:26;23.02;;;14.77;;
41653;SDS011;68687;52.030;7.110;2023-04-06T00:49:55;23.05;;;13.85;;
41653;SDS011;68687;52.030;7.110;2023-04-06T00:52:20;20.08;;;13.32;;
41653;SDS011;68687;52.030;7.110;2023-04-06T00:54:46;24.27;;;14.63;;
41653;SDS011;68687;52.030;7.110;2023-04-06T00:57:11;20.55;;;13.80;;
41653;SDS011;68687;52.030;7.110;2023-04-06T00:59:38;21.45;;;13.15;;
41653;SDS011;68687;52.030;7.110;2023-04-06T01:02:03;23.20;;;13.75;;
41653;SDS011;68687;52.030;7.110;2023-04-06T01:04:29;22.02;;;14.68;;
41653;SDS011;68687;52.030;7.110;2023-04-06T01:06:55;26.33;;;15.45;;
41653;SDS011;68687;52.030;7.110;2023-04-06T01:09:20;24.13;;;14.55;;
41653;SDS011;68687;52.030;7.110;2023-04-06T01:11:47;22.70;;;14.90;;
41653;SDS011;68687;52.030;7.110;2023-04-06T01:14:12;19.65;;;13.43;;
41653;SDS011;68687;52.030;7.110;2023-04-06T01:16:38;20.23;;;14.10;;
41653;SDS011;68687;52.030;7.110;2023-04-06T01:19:10;19.95;;;13.18;;
41653;SDS011;68687;52.030;7.110;2023-04-06T01:21:36;22.17;;;13.57;;
41653;SDS011;68687;52.030;7.110;2023-04-06T01:24:02;22.02;;;14.20;;
41653;SDS011;68687;52.030;7.110;2023-04-06T01:26:28;23.08;;;14.07;;
41653;SDS011;68687;52.030;7.110;2023-04-06T01:28:54;21.45;;;13.48;;
41653;SDS011;68687;52.030;7.110;2023-04-06T01:31:20;24.80;;;13.77;;
41653;SDS011;68687;52.030;7.110;2023-04-06T01:33:46;18.90;;;13.55;;
41653;SDS011;68687;52.030;7.110;2023-04-06T01:36:11;20.80;;;13.80;;
41653;SDS011;68687;52.030;7.110;2023-04-06T01:38:37;23.70;;;14.38;;
41653;SDS011;68687;52.030;7.110;2023-04-06T01:41:02;25.95;;;14.38;;
41653;SDS011;68687;52.030;7.110;2023-04-06T01:43:27;26.23;;;15.50;;
41653;SDS011;68687;52.030;7.110;2023-04-06T01:45:53;21.45;;;13.77;;
41653;SDS011;68687;52.030;7.110;2023-04-06T01:48:18;24.70;;;14.25;;
41653;SDS011;68687;52.030;7.110;2023-04-06T01:50:43;24.75;;;14.55;;
41653;SDS011;68687;52.030;7.110;2023-04-06T01:53:09;20.65;;;13.60;;
41653;SDS011;68687;52.030;7.110;2023-04-06T01:55:34;20.30;;;14.25;;
41653;SDS011;68687;52.030;7.110;2023-04-06T01:57:59;24.02;;;14.30;;
41653;SDS011;68687;52.030;7.110;2023-04-06T02:00:25;23.15;;;13.50;;
41653;SDS011;68687;52.030;7.110;2023-04-06T02:02:50;21.55;;;13.93;;
41653;SDS011;68687;52.030;7.110;2023-04-06T02:05:15;24.02;;;14.25;;
41653;SDS011;68687;52.030;7.110;2023-04-06T02:07:41;24.77;;;14.85;;
41653;SDS011;68687;52.030;7.110;2023-04-06T02:10:11;23.30;;;13.38;;
41653;SDS011;68687;52.030;7.110;2023-04-06T02:12:38;27.02;;;16.13;;
41653;SDS011;68687;52.030;7.110;2023-04-06T02:15:03;24.52;;;13.80;;
41653;SDS011;68687;52.030;7.110;2023-04-06T02:17:28;20.98;;;14.45;;
41653;SDS011;68687;52.030;7.110;2023-04-06T02:19:54;24.30;;;14.77;;
41653;SDS011;68687;52.030;7.110;2023-04-06T02:22:19;23.20;;;15.98;;
41653;SDS011;68687;52.030;7.110;2023-04-06T02:24:45;24.98;;;15.57;;
41653;SDS011;68687;52.030;7.110;2023-04-06T02:27:11;21.90;;;15.38;;
41653;SDS011;68687;52.030;7.110;2023-04-06T02:29:37;20.85;;;15.10;;
41653;SDS011;68687;52.030;7.110;2023-04-06T02:32:02;25.33;;;15.45;;
41653;SDS011;68687;52.030;7.110;2023-04-06T02:34:27;25.23;;;16.05;;
41653;SDS011;68687;52.030;7.110;2023-04-06T02:36:54;22.90;;;14.77;;
41653;SDS011;68687;52.030;7.110;2023-04-06T02:39:20;23.77;;;15.15;;
41653;SDS011;68687;52.030;7.110;2023-04-06T02:41:45;23.08;;;14.57;;
41653;SDS011;68687;52.030;7.110;2023-04-06T02:44:10;23.27;;;15.10;;
41653;SDS011;68687;52.030;7.110;2023-04-06T02:46:36;26.27;;;15.02;;
41653;SDS011;68687;52.030;7.110;2023-04-06T02:49:01;24.58;;;14.90;;
41653;SDS011;68687;52.030;7.110;2023-04-06T02:51:27;32.75;;;15.40;;
41653;SDS011;68687;52.030;7.110;2023-04-06T02:53:53;23.23;;;14.93;;
41653;SDS011;68687;52.030;7.110;2023-04-06T02:56:18;21.67;;;14.25;;
41653;SDS011;68687;52.030;7.110;2023-04-06T02:58:45;23.00;;;15.25;;
41653;SDS011;68687;52.030;7.110;2023-04-06T03:01:11;21.60;;;14.75;;
41653;SDS011;68687;52.030;7.110;2023-04-06T03:03:36;24.15;;;15.13;;
41653;SDS011;68687;52.030;7.110;2023-04-06T03:06:01;33.50;;;14.77;;
41653;SDS011;68687;52.030;7.110;2023-04-06T03:08:28;22.70;;;15.93;;
41653;SDS011;68687;52.030;7.110;2023-04-06T03:10:53;23.95;;;14.45;;
41653;SDS011;68687;52.030;7.110;2023-04-06T03:13:18;23.60;;;14.55;;
41653;SDS011;68687;52.030;7.110;2023-04-06T03:15:44;22.23;;;14.85;;
41653;SDS011;68687;52.030;7.110;2023-04-06T03:18:09;21.30;;;14.32;;
41653;SDS011;68687;52.030;7.110;2023-04-06T03:20:34;27.83;;;13.80;;
41653;SDS011;68687;52.030;7.110;2023-04-06T03:23:00;30.42;;;15.55;;
41653;SDS011;68687;52.030;7.110;2023-04-06T03:25:25;24.70;;;15.48;;
41653;SDS011;68687;52.030;7.110;2023-04-06T03:27:50;24.88;;;14.80;;
41653;SDS011;68687;52.030;7.110;2023-04-06T03:30:16;23.63;;;13.50;;
41653;SDS011;68687;52.030;7.110;2023-04-06T03:32:42;25.38;;;14.85;;
41653;SDS011;68687;52.030;7.110;2023-04-06T03:35:08;25.42;;;15.18;;
41653;SDS011;68687;52.030;7.110;2023-04-06T03:37:34;28.10;;;16.08;;
41653;SDS011;68687;52.030;7.110;2023-04-06T03:39:59;23.90;;;15.40;;
41653;SDS011;68687;52.030;7.110;2023-04-06T03:42:25;22.92;;;14.70;;
41653;SDS011;68687;52.030;7.110;2023-04-06T03:44:51;22.17;;;14.25;;
41653;SDS011;68687;52.030;7.110;2023-04-06T03:47:17;21.15;;;14.52;;
41653;SDS011;68687;52.030;7.110;2023-04-06T03:49:42;26.23;;;15.82;;
41653;SDS011;68687;52.030;7.110;2023-04-06T03:52:07;23.88;;;16.02;;
41653;SDS011;68687;52.030;7.110;2023-04-06T03:54:32;23.95;;;15.10;;
41653;SDS011;68687;52.030;7.110;2023-04-06T03:56:58;25.13;;;14.73;;
41653;SDS011;68687;52.030;7.110;2023-04-06T03:59:23;24.25;;;16.63;;
41653;SDS011;68687;52.030;7.110;2023-04-06T04:01:48;25.00;;;14.68;;
41653;SDS011;68687;52.030;7.110;2023-04-06T04:04:14;23.52;;;14.52;;
41653;SDS011;68687;52.030;7.110;2023-04-06T04:06:39;22.80;;;14.15;;
41653;SDS011;68687;52.030;7.110;2023-04-06T04:09:05;23.83;;;15.05;;
41653;SDS011;68687;52.030;7.110;2023-04-06T04:11:30;21.17;;;15.10;;
41653;SDS011;68687;52.030;7.110;2023-04-06T04:13:55;28.23;;;15.02;;
41653;SDS011;68687;52.030;7.110;2023-04-06T04:16:21;24.10;;;15.50;;
41653;SDS011;68687;52.030;7.110;2023-04-06T04:18:46;27.45;;;16.70;;
41653;SDS011;68687;52.030;7.110;2023-04-06T04:21:13;22.00;;;15.40;;
41653;SDS011;68687;52.030;7.110;2023-04-06T04:23:38;25.02;;;16.55;;
41653;SDS011;68687;52.030;7.110;2023-04-06T04:26:04;29.00;;;17.55;;
41653;SDS011;68687;52.030;7.110;2023-04-06T04:28:29;29.25;;;16.65;;
41653;SDS011;68687;52.030;7.110;2023-04-06T04:30:55;26.15;;;16.05;;
41653;SDS011;68687;52.030;7.110;2023-04-06T04:33:20;23.05;;;15.57;;
41653;SDS011;68687;52.030;7.110;2023-04-06T04:35:45;22.45;;;16.27;;
41653;SDS011;68687;52.030;7.110;2023-04-06T04:38:11;31.98;;;18.58;;
41653;SDS011;68687;52.030;7.110;2023-04-06T04:40:36;33.83;;;20.73;;
41653;SDS011;68687;52.030;7.110;2023-04-06T04:43:01;37.28;;;21.27;;
41653;SDS011;68687;52.030;7.110;2023-04-06T04:45:27;32.50;;;20.10;;
41653;SDS011;68687;52.030;7.110;2023-04-06T04:48:31;30.67;;;19.35;;
41653;SDS011;68687;52.030;7.110;2023-04-06T04:50:57;34.92;;;20.58;;
41653;SDS011;68687;52.030;7.110;2023-04-06T04:53:22;51.78;;;26.65;;
41653;SDS011;68687;52.030;7.110;2023-04-06T04:55:47;43.75;;;23.90;;
41653;SDS011;68687;52.030;7.110;2023-04-06T04:58:13;42.85;;;24.73;;
41653;SDS011;68687;52.030;7.110;2023-04-06T05:00:41;46.75;;;23.70;;
41653;SDS011;68687;52.030;7.110;2023-04-06T05:03:11;33.55;;;20.15;;
41653;SDS011;68687;52.030;7.110;2023-04-06T05:05:43;32.67;;;19.50;;
41653;SDS011;68687;52.030;7.110;2023-04-06T05:08:08;33.58;;;19.25;;
41653;SDS011;68687;52.030;7.110;2023-04-06T05:10:34;35.83;;;17.90;;
41653;SDS011;68687;52.030;7.110;2023-04-06T05:13:00;30.80;;;17.48;;
41653;SDS011;68687;52.030;7.110;2023-04-06T05:15:25;42.13;;;21.58;;
41653;SDS011;68687;52.030;7.110;2023-04-06T05:17:51;36.97;;;20.60;;
41653;SDS011;68687;52.030;7.110;2023-04-06T05:20:16;33.35;;;20.00;;
41653;SDS011;68687;52.030;7.110;2023-04-06T05:22:41;29.25;;;17.95;;
41653;SDS011;68687;52.030;7.110;2023-04-06T05:25:07;40.83;;;19.58;;
41653;SDS011;68687;52.030;7.110;2023-04-06T05:27:32;35.85;;;18.67;;
41653;SDS011;68687;52.030;7.110;2023-04-06T05:29:58;31.98;;;18.38;;
41653;SDS011;68687;52.030;7.110;2023-04-06T05:32:23;31.83;;;18.48;;
41653;SDS011;68687;52.030;7.110;2023-04-06T05:34:49;29.95;;;18.27;;
41653;SDS011;68687;52.030;7.110;2023-04-06T05:37:15;31.40;;;17.80;;
41653;SDS011;68687;52.030;7.110;2023-04-06T05:39:41;33.33;;;16.63;;
41653;SDS011;68687;52.030;7.110;2023-04-06T05:42:06;32.70;;;17.45;;
41653;SDS011;68687;52.030;7.110;2023-04-06T05:44:31;28.42;;;18.00;;
41653;SDS011;68687;52.030;7.110;2023-04-06T05:46:57;27.83;;;17.27;;
41653;SDS011;68687;52.030;7.110;2023-04-06T05:49:22;30.35;;;17.65;;
41653;SDS011;68687;52.030;7.110;2023-04-06T05:51:47;29.20;;;16.23;;
41653;SDS011;68687;52.030;7.110;2023-04-06T05:54:13;29.30;;;16.27;;
41653;SDS011;68687;52.030;7.110;2023-04-06T05:56:38;35.25;;;16.92;;
41653;SDS011;68687;52.030;7.110;2023-04-06T05:59:03;30.23;;;16.85;;
41653;SDS011;68687;52.030;7.110;2023-04-06T06:01:29;28.15;;;16.80;;
41653;SDS011;68687;52.030;7.110;2023-04-06T06:03:55;32.83;;;18.05;;
41653;SDS011;68687;52.030;7.110;2023-04-06T06:06:20;31.17;;;17.30;;
41653;SDS011;68687;52.030;7.110;2023-04-06T06:08:45;27.73;;;16.08;;
41653;SDS011;68687;52.030;7.110;2023-04-06T06:11:11;30.10;;;17.58;;
41653;SDS011;68687;52.030;7.110;2023-04-06T06:13:36;33.10;;;18.35;;
41653;SDS011;68687;52.030;7.110;2023-04-06T06:16:01;29.35;;;18.52;;
41653;SDS011;68687;52.030;7.110;2023-04-06T06:18:30;30.73;;;17.98;;
41653;SDS011;68687;52.030;7.110;2023-04-06T06:20:55;37.25;;;18.75;;
41653;SDS011;68687;52.030;7.110;2023-04-06T06:23:20;36.90;;;18.75;;
41653;SDS011;68687;52.030;7.110;2023-04-06T06:25:46;35.42;;;18.90;;
41653;SDS011;68687;52.030;7.110;2023-04-06T06:28:11;28.13;;;17.92;;
41653;SDS011;68687;52.030;7.110;2023-04-06T06:30:36;32.30;;;18.27;;
41653;SDS011;68687;52.030;7.110;2023-04-06T06:33:02;28.00;;;18.10;;
41653;SDS011;68687;52.030;7.110;2023-04-06T06:35:28;30.05;;;17.75;;
41653;SDS011;68687;52.030;7.110;2023-04-06T06:37:53;35.38;;;19.05;;
41653;SDS011;68687;52.030;7.110;2023-04-06T06:40:19;34.88;;;18.73;;
41653;SDS011;68687;52.030;7.110;2023-04-06T06:42:46;45.50;;;21.17;;
41653;SDS011;68687;52.030;7.110;2023-04-06T06:45:12;50.05;;;23.60;;
41653;SDS011;68687;52.030;7.110;2023-04-06T06:47:37;41.72;;;20.52;;
41653;SDS011;68687;52.030;7.110;2023-04-06T06:50:03;32.15;;;17.25;;
41653;SDS011;68687;52.030;7.110;2023-04-06T06:52:28;34.47;;;18.50;;
41653;SDS011;68687;52.030;7.110;2023-04-06T06:54:54;32.50;;;17.50;;
41653;SDS011;68687;52.030;7.110;2023-04-06T06:57:19;30.75;;;18.17;;
41653;SDS011;68687;52.030;7.110;2023-04-06T06:59:44;34.55;;;17.63;;
41653;SDS011;68687;52.030;7.110;2023-04-06T07:02:09;36.95;;;19.17;;
41653;SDS011;68687;52.030;7.110;2023-04-06T07:04:35;36.50;;;20.08;;
41653;SDS011;68687;52.030;7.110;2023-04-06T07:07:00;33.30;;;18.02;;
41653;SDS011;68687;52.030;7.110;2023-04-06T07:09:26;31.70;;;17.85;;
41653;SDS011;68687;52.030;7.110;2023-04-06T07:11:51;33.97;;;18.85;;
41653;SDS011;68687;52.030;7.110;2023-04-06T07:14:17;32.00;;;17.25;;
41653;SDS011;68687;52.030;7.110;2023-04-06T07:16:42;30.33;;;17.38;;
41653;SDS011;68687;52.030;7.110;2023-04-06T07:19:09;27.23;;;17.33;;
41653;SDS011;68687;52.030;7.110;2023-04-06T07:21:35;26.90;;;16.42;;
41653;SDS011;68687;52.030;7.110;2023-04-06T07:24:00;28.48;;;17.25;;
41653;SDS011;68687;52.030;7.110;2023-04-06T07:26:26;25.90;;;16.45;;
41653;SDS011;68687;52.030;7.110;2023-04-06T07:28:52;28.55;;;16.67;;
41653;SDS011;68687;52.030;7.110;2023-04-06T07:31:17;24.08;;;15.95;;
41653;SDS011;68687;52.030;7.110;2023-04-06T07:33:42;29.00;;;16.63;;
41653;SDS011;68687;52.030;7.110;2023-04-06T07:36:08;24.15;;;16.38;;
41653;SDS011;68687;52.030;7.110;2023-04-06T07:38:33;23.60;;;16.95;;
41653;SDS011;68687;52.030;7.110;2023-04-06T07:40:58;27.08;;;17.17;;
41653;SDS011;68687;52.030;7.110;2023-04-06T07:43:24;28.65;;;17.90;;
41653;SDS011;68687;52.030;7.110;2023-04-06T07:45:50;28.63;;;18.08;;
41653;SDS011;68687;52.030;7.110;2023-04-06T07:48:15;30.02;;;17.27;;
41653;SDS011;68687;52.030;7.110;2023-04-06T07:50:41;24.73;;;15.48;;
41653;SDS011;68687;52.030;7.110;2023-04-06T07:53:06;26.45;;;16.90;;
41653;SDS011;68687;52.030;7.110;2023-04-06T07:55:31;27.67;;;17.20;;
41653;SDS011;68687;52.030;7.110;2023-04-06T07:57:57;23.92;;;16.08;;
41653;SDS011;68687;52.030;7.110;2023-04-06T08:00:22;27.40;;;16.90;;
41653;SDS011;68687;52.030;7.110;2023-04-06T08:02:47;33.60;;;17.92;;
41653;SDS011;68687;52.030;7.110;2023-04-06T08:05:13;28.58;;;16.85;;
41653;SDS011;68687;52.030;7.110;2023-04-06T08:07:38;28.55;;;16.42;;
41653;SDS011;68687;52.030;7.110;2023-04-06T08:10:03;28.02;;;17.17;;
41653;SDS011;68687;52.030;7.110;2023-04-06T08:12:29;25.17;;;16.92;;
41653;SDS011;68687;52.030;7.110;2023-04-06T08:14:54;28.50;;;16.55;;
41653;SDS011;68687;52.030;7.110;2023-04-06T08:17:21;26.02;;;16.50;;
41653;SDS011;68687;52.030;7.110;2023-04-06T08:19:47;26.75;;;17.45;;
41653;SDS011;68687;52.030;7.110;2023-04-06T08:22:12;27.77;;;17.48;;
41653;SDS011;68687;52.030;7.110;2023-04-06T08:24:37;30.30;;;19.17;;
41653;SDS011;68687;52.030;7.110;2023-04-06T08:27:03;33.88;;;18.50;;
41653;SDS011;68687;52.030;7.110;2023-04-06T08:29:28;27.67;;;17.23;;
41653;SDS011;68687;52.030;7.110;2023-04-06T08:31:54;28.05;;;19.00;;
41653;SDS011;68687;52.030;7.110;2023-04-06T08:34:20;29.15;;;17.20;;
41653;SDS011;68687;52.030;7.110;2023-04-06T08:36:46;27.83;;;17.10;;
41653;SDS011;68687;52.030;7.110;2023-04-06T08:39:11;29.42;;;18.33;;
41653;SDS011;68687;52.030;7.110;2023-04-06T08:41:37;31.90;;;20.27;;
41653;SDS011;68687;52.030;7.110;2023-04-06T08:44:02;25.25;;;17.67;;
41653;SDS011;68687;52.030;7.110;2023-04-06T08:46:28;26.17;;;17.30;;
41653;SDS011;68687;52.030;7.110;2023-04-06T08:48:59;33.33;;;17.35;;
41653;SDS011;68687;52.030;7.110;2023-04-06T08:51:25;32.67;;;18.38;;
41653;SDS011;68687;52.030;7.110;2023-04-06T08:53:52;25.55;;;17.02;;
41653;SDS011;68687;52.030;7.110;2023-04-06T08:56:22;37.92;;;17.73;;
41653;SDS011;68687;52.030;7.110;2023-04-06T08:58:48;31.73;;;18.48;;
41653;SDS011;68687;52.030;7.110;2023-04-06T09:01:14;34.45;;;18.42;;
41653;SDS011;68687;52.030;7.110;2023-04-06T09:03:43;28.75;;;17.42;;
41653;SDS011;68687;52.030;7.110;2023-04-06T09:06:09;33.65;;;19.45;;
41653;SDS011;68687;52.030;7.110;2023-04-06T09:08:38;29.00;;;18.65;;
41653;SDS011;68687;52.030;7.110;2023-04-06T09:11:04;28.10;;;18.05;;
41653;SDS011;68687;52.030;7.110;2023-04-06T09:13:30;31.85;;;18.40;;
41653;SDS011;68687;52.030;7.110;2023-04-06T09:16:03;28.92;;;18.63;;
41653;SDS011;68687;52.030;7.110;2023-04-06T09:18:33;35.50;;;20.52;;
41653;SDS011;68687;52.030;7.110;2023-04-06T09:21:00;29.88;;;20.15;;
41653;SDS011;68687;52.030;7.110;2023-04-06T09:23:26;30.30;;;18.98;;
41653;SDS011;68687;52.030;7.110;2023-04-06T09:25:52;28.15;;;18.55;;
41653;SDS011;68687;52.030;7.110;2023-04-06T09:28:27;33.25;;;19.90;;
41653;SDS011;68687;52.030;7.110;2023-04-06T09:30:53;34.50;;;21.92;;
41653;SDS011;68687;52.030;7.110;2023-04-06T09:33:22;35.33;;;20.50;;
41653;SDS011;68687;52.030;7.110;2023-04-06T09:35:51;40.13;;;22.13;;
41653;SDS011;68687;52.030;7.110;2023-04-06T09:38:16;41.75;;;22.58;;
41653;SDS011;68687;52.030;7.110;2023-04-06T09:40:50;35.20;;;20.80;;
41653;SDS011;68687;52.030;7.110;2023-04-06T09:43:23;34.95;;;21.05;;
41653;SDS011;68687;52.030;7.110;2023-04-06T09:45:50;36.38;;;23.02;;
41653;SDS011;68687;52.030;7.110;2023-04-06T09:48:15;42.85;;;22.65;;
41653;SDS011;68687;52.030;7.110;2023-04-06T09:50:41;33.38;;;22.17;;
41653;SDS011;68687;52.030;7.110;2023-04-06T09:53:07;33.92;;;21.33;;
41653;SDS011;68687;52.030;7.110;2023-04-06T09:55:35;38.90;;;21.70;;
41653;SDS011;68687;52.030;7.110;2023-04-06T09:58:05;33.67;;;21.08;;
41653;SDS011;68687;52.030;7.110;2023-04-06T10:00:32;32.90;;;21.27;;
41653;SDS011;68687;52.030;7.110;2023-04-06T10:03:25;36.22;;;24.50;;
41653;SDS011;68687;52.030;7.110;2023-04-06T10:06:01;41.72;;;25.15;;
41653;SDS011;68687;52.030;7.110;2023-04-06T10:08:30;53.85;;;31.23;;
41653;SDS011;68687;52.030;7.110;2023-04-06T10:11:00;44.15;;;27.73;;
41653;SDS011;68687;52.030;7.110;2023-04-06T10:13:25;36.95;;;22.85;;
41653;SDS011;68687;52.030;7.110;2023-04-06T10:15:51;42.33;;;23.20;;
41653;SDS011;68687;52.030;7.110;2023-04-06T10:18:17;65.50;;;25.35;;
41653;SDS011;68687;52.030;7.110;2023-04-06T10:20:52;40.65;;;22.08;;
41653;SDS011;68687;52.030;7.110;2023-04-06T10:26:12;39.05;;;22.52;;
41653;SDS011;68687;52.030;7.110;2023-04-06T10:28:40;34.80;;;23.00;;
41653;SDS011;68687;52.030;7.110;2023-04-06T10:31:07;35.53;;;21.58;;
41653;SDS011;68687;52.030;7.110;2023-04-06T10:33:33;37.60;;;21.83;;
41653;SDS011;68687;52.030;7.110;2023-04-06T10:36:12;64.43;;;25.52;;
41653;SDS011;68687;52.030;7.110;2023-04-06T10:38:38;36.95;;;22.95;;
41653;SDS011;68687;52.030;7.110;2023-04-06T10:41:07;36.50;;;22.02;;
41653;SDS011;68687;52.030;7.110;2023-04-06T10:43:34;37.78;;;23.10;;
41653;SDS011;68687;52.030;7.110;2023-04-06T10:46:01;38.88;;;22.63;;
41653;SDS011;68687;52.030;7.110;2023-04-06T10:51:16;34.83;;;22.65;;
41653;SDS011;68687;52.030;7.110;2023-04-06T10:53:46;37.33;;;22.02;;
41653;SDS011;68687;52.030;7.110;2023-04-06T10:56:17;36.97;;;23.23;;
41653;SDS011;68687;52.030;7.110;2023-04-06T10:58:47;38.42;;;22.42;;
41653;SDS011;68687;52.030;7.110;2023-04-06T11:01:16;37.78;;;22.45;;
41653;SDS011;68687;52.030;7.110;2023-04-06T11:03:43;38.00;;;21.73;;
41653;SDS011;68687;52.030;7.110;2023-04-06T11:06:09;34.63;;;21.92;;
41653;SDS011;68687;52.030;7.110;2023-04-06T11:08:35;39.95;;;22.73;;
41653;SDS011;68687;52.030;7.110;2023-04-06T11:13:41;35.63;;;22.38;;
41653;SDS011;68687;52.030;7.110;2023-04-06T11:16:16;39.78;;;22.63;;
41653;SDS011;68687;52.030;7.110;2023-04-06T11:18:55;40.58;;;23.67;;
41653;SDS011;68687;52.030;7.110;2023-04-06T11:26:30;35.47;;;21.60;;
41653;SDS011;68687;52.030;7.110;2023-04-06T11:28:55;40.63;;;23.00;;
41653;SDS011;68687;52.030;7.110;2023-04-06T11:31:24;37.22;;;20.90;;
41653;SDS011;68687;52.030;7.110;2023-04-06T11:33:55;38.75;;;21.20;;
41653;SDS011;68687;52.030;7.110;2023-04-06T11:36:21;37.80;;;22.08;;
41653;SDS011;68687;52.030;7.110;2023-04-06T11:38:46;33.90;;;20.70;;
41653;SDS011;68687;52.030;7.110;2023-04-06T11:41:12;35.08;;;20.10;;
41653;SDS011;68687;52.030;7.110;2023-04-06T11:43:37;34.58;;;20.58;;
41653;SDS011;68687;52.030;7.110;2023-04-06T11:46:03;36.05;;;20.10;;
41653;SDS011;68687;52.030;7.110;2023-04-06T11:48:29;33.20;;;20.40;;
41653;SDS011;68687;52.030;7.110;2023-04-06T11:50:56;32.45;;;20.90;;
41653;SDS011;68687;52.030;7.110;2023-04-06T11:53:29;37.28;;;20.35;;
41653;SDS011;68687;52.030;7.110;2023-04-06T11:55:55;41.67;;;20.30;;
41653;SDS011;68687;52.030;7.110;2023-04-06T11:58:21;33.33;;;20.05;;
41653;SDS011;68687;52.030;7.110;2023-04-06T12:00:47;40.88;;;21.00;;
41653;SDS011;68687;52.030;7.110;2023-04-06T12:03:13;42.70;;;24.95;;
41653;SDS011;68687;52.030;7.110;2023-04-06T12:05:38;44.50;;;24.67;;
41653;SDS011;68687;52.030;7.110;2023-04-06T12:08:04;41.67;;;23.20;;
41653;SDS011;68687;52.030;7.110;2023-04-06T12:10:29;43.17;;;25.63;;
41653;SDS011;68687;52.030;7.110;2023-04-06T12:12:55;38.05;;;25.40;;
41653;SDS011;68687;52.030;7.110;2023-04-06T12:15:20;36.22;;;23.02;;
41653;SDS011;68687;52.030;7.110;2023-04-06T12:17:46;38.70;;;24.27;;
41653;SDS011;68687;52.030;7.110;2023-04-06T12:20:12;40.50;;;24.45;;
41653;SDS011;68687;52.030;7.110;2023-04-06T12:22:38;39.45;;;23.85;;
41653;SDS011;68687;52.030;7.110;2023-04-06T12:25:03;41.13;;;24.38;;
41653;SDS011;68687;52.030;7.110;2023-04-06T12:27:29;41.38;;;24.48;;
41653;SDS011;68687;52.030;7.110;2023-04-06T12:29:55;41.60;;;24.20;;
41653;SDS011;68687;52.030;7.110;2023-04-06T12:32:20;38.75;;;25.17;;
41653;SDS011;68687;52.030;7.110;2023-04-06T12:34:46;40.53;;;24.08;;
41653;SDS011;68687;52.030;7.110;2023-04-06T12:37:11;35.70;;;22.17;;
41653;SDS011;68687;52.030;7.110;2023-04-06T12:39:37;38.40;;;23.50;;
41653;SDS011;68687;52.030;7.110;2023-04-06T12:42:02;41.05;;;22.77;;
41653;SDS011;68687;52.030;7.110;2023-04-06T12:44:28;39.58;;;24.40;;
41653;SDS011;68687;52.030;7.110;2023-04-06T12:46:54;36.45;;;21.35;;
41653;SDS011;68687;52.030;7.110;2023-04-06T12:49:20;39.70;;;23.48;;
41653;SDS011;68687;52.030;7.110;2023-04-06T12:51:46;35.65;;;21.08;;
41653;SDS011;68687;52.030;7.110;2023-04-06T12:54:12;37.90;;;22.58;;
41653;SDS011;68687;52.030;7.110;2023-04-06T12:56:37;39.15;;;22.15;;
41653;SDS011;68687;52.030;7.110;2023-04-06T12:59:03;40.22;;;23.60;;
41653;SDS011;68687;52.030;7.110;2023-04-06T13:01:28;40.67;;;21.27;;
41653;SDS011;68687;52.030;7.110;2023-04-06T13:03:53;40.70;;;22.33;;
41653;SDS011;68687;52.030;7.110;2023-04-06T13:06:19;39.60;;;21.17;;
41653;SDS011;68687;52.030;7.110;2023-04-06T13:08:44;43.83;;;24.55;;
41653;SDS011;68687;52.030;7.110;2023-04-06T13:11:12;36.15;;;20.98;;
41653;SDS011;68687;52.030;7.110;2023-04-06T13:13:37;38.15;;;22.23;;
41653;SDS011;68687;52.030;7.110;2023-04-06T13:16:03;35.22;;;20.42;;
41653;SDS011;68687;52.030;7.110;2023-04-06T13:18:31;36.70;;;20.02;;
41653;SDS011;68687;52.030;7.110;2023-04-06T13:20:57;36.85;;;22.52;;
41653;SDS011;68687;52.030;7.110;2023-04-06T13:23:24;35.22;;;19.45;;
41653;SDS011;68687;52.030;7.110;2023-04-06T13:25:56;35.22;;;20.33;;
41653;SDS011;68687;52.030;7.110;2023-04-06T13:28:25;33.00;;;20.58;;
41653;SDS011;68687;52.030;7.110;2023-04-06T13:30:51;38.88;;;21.05;;
41653;SDS011;68687;52.030;7.110;2023-04-06T13:33:16;34.05;;;19.98;;
41653;SDS011;68687;52.030;7.110;2023-04-06T13:35:44;38.30;;;20.42;;
41653;SDS011;68687;52.030;7.110;2023-04-06T13:38:10;39.47;;;21.10;;
41653;SDS011;68687;52.030;7.110;2023-04-06T13:40:38;59.28;;;25.85;;
41653;SDS011;68687;52.030;7.110;2023-04-06T13:43:04;48.08;;;24.95;;
41653;SDS011;68687;52.030;7.110;2023-04-06T13:45:30;91.97;;;30.50;;
41653;SDS011;68687;52.030;7.110;2023-04-06T13:47:55;129.57;;;51.78;;
41653;SDS011;68687;52.030;7.110;2023-04-06T13:50:20;108.22;;;43.10;;
41653;SDS011;68687;52.030;7.110;2023-04-06T13:52:46;67.75;;;32.70;;
41653;SDS011;68687;52.030;7.110;2023-04-06T13:55:11;82.80;;;37.45;;
41653;SDS011;68687;52.030;7.110;2023-04-06T13:57:36;36.00;;;19.90;;
41653;SDS011;68687;52.030;7.110;2023-04-06T14:00:02;38.78;;;21.38;;
41653;SDS011;68687;52.030;7.110;2023-04-06T14:02:29;33.72;;;19.42;;
41653;SDS011;68687;52.030;7.110;2023-04-06T14:04:54;36.72;;;20.40;;
41653;SDS011;68687;52.030;7.110;2023-04-06T14:07:20;41.33;;;20.08;;
41653;SDS011;68687;52.030;7.110;2023-04-06T14:09:46;30.85;;;16.30;;
41653;SDS011;68687;52.030;7.110;2023-04-06T14:12:11;35.08;;;17.63;;
41653;SDS011;68687;52.030;7.110;2023-04-06T14:14:36;35.60;;;18.25;;
41653;SDS011;68687;52.030;7.110;2023-04-06T14:17:01;30.35;;;17.38;;
41653;SDS011;68687;52.030;7.110;2023-04-06T14:19:27;32.15;;;18.55;;
41653;SDS011;68687;52.030;7.110;2023-04-06T14:21:52;30.52;;;18.08;;
41653;SDS011;68687;52.030;7.110;2023-04-06T14:24:18;30.52;;;17.30;;
41653;SDS011;68687;52.030;7.110;2023-04-06T14:26:44;36.63;;;19.42;;
41653;SDS011;68687;52.030;7.110;2023-04-06T14:29:09;32.05;;;17.95;;